sensor_id;sensor_type;location;lat;lon;timestamp;temperature;humidity
14099;DHT22;7126;48.458;7.930;2023-04-25T00:01:55;11.60;99.90
14099;DHT22;7126;48.458;7.930;2023-04-25T00:04:22;11.60;99.90
14099;DHT22;7126;48.458;7.930;2023-04-25T00:06:47;11.70;99.90
14099;DHT22;7126;48.458;7.930;2023-04-25T00:09:13;11.70;99.90
14099;DHT22;7126;48.458;7.930;2023-04-25T00:11:40;11.60;99.90
14099;DHT22;7126;48.458;7.930;2023-04-25T00:14:05;11.60;99.90
14099;DHT22;7126;48.458;7.930;2023-04-25T00:16:32;11.60;99.90
14099;DHT22;7126;48.458;7.930;2023-04-25T00:18:59;11.60;99.90
14099;DHT22;7126;48.458;7.930;2023-04-25T00:21:25;11.60;99.90
14099;DHT22;7126;48.458;7.930;2023-04-25T00:23:52;11.60;99.90
14099;DHT22;7126;48.458;7.930;2023-04-25T00:26:18;11.60;99.90
14099;DHT22;7126;48.458;7.930;2023-04-25T00:28:43;11.60;99.90
14099;DHT22;7126;48.458;7.930;2023-04-25T00:31:09;11.60;99.90
14099;DHT22;7126;48.458;7.930;2023-04-25T00:33:35;11.50;99.90
14099;DHT22;7126;48.458;7.930;2023-04-25T00:36:00;11.40;99.90
14099;DHT22;7126;48.458;7.930;2023-04-25T00:38:26;11.20;99.90
14099;DHT22;7126;48.458;7.930;2023-04-25T00:40:51;11.10;99.90
14099;DHT22;7126;48.458;7.930;2023-04-25T00:43:18;11.00;99.90
14099;DHT22;7126;48.458;7.930;2023-04-25T00:45:43;10.90;99.90
14099;DHT22;7126;48.458;7.930;2023-04-25T00:48:13;10.80;99.90
14099;DHT22;7126;48.458;7.930;2023-04-25T00:50:39;10.80;99.90
14099;DHT22;7126;48.458;7.930;2023-04-25T00:53:04;10.70;99.90
14099;DHT22;7126;48.458;7.930;2023-04-25T00:55:30;10.60;99.90
14099;DHT22;7126;48.458;7.930;2023-04-25T00:57:57;10.50;99.90
14099;DHT22;7126;48.458;7.930;2023-04-25T01:00:23;10.40;99.90
14099;DHT22;7126;48.458;7.930;2023-04-25T01:02:48;10.40;99.90
14099;DHT22;7126;48.458;7.930;2023-04-25T01:05:15;10.30;99.90
14099;DHT22;7126;48.458;7.930;2023-04-25T01:07:40;10.30;99.90
14099;DHT22;7126;48.458;7.930;2023-04-25T01:10:06;10.30;99.90
14099;DHT22;7126;48.458;7.930;2023-04-25T01:12:33;10.30;99.90
14099;DHT22;7126;48.458;7.930;2023-04-25T01:14:59;10.30;99.90
14099;DHT22;7126;48.458;7.930;2023-04-25T01:17:25;10.30;99.90
14099;DHT22;7126;48.458;7.930;2023-04-25T01:19:50;10.20;99.90
14099;DHT22;7126;48.458;7.930;2023-04-25T01:22:16;10.20;99.90
14099;DHT22;7126;48.458;7.930;2023-04-25T01:24:43;10.20;99.90
14099;DHT22;7126;48.458;7.930;2023-04-25T01:27:09;10.20;99.90
14099;DHT22;7126;48.458;7.930;2023-04-25T01:29:35;10.20;99.90
14099;DHT22;7126;48.458;7.930;2023-04-25T01:32:01;10.20;99.90
14099;DHT22;7126;48.458;7.930;2023-04-25T01:34:27;10.30;99.90
14099;DHT22;7126;48.458;7.930;2023-04-25T01:36:53;10.30;99.90
14099;DHT22;7126;48.458;7.930;2023-04-25T01:39:19;10.30;99.90
14099;DHT22;7126;48.458;7.930;2023-04-25T01:41:46;10.40;99.90
14099;DHT22;7126;48.458;7.930;2023-04-25T01:44:12;10.40;99.90
14099;DHT22;7126;48.458;7.930;2023-04-25T01:46:38;10.40;99.90
14099;DHT22;7126;48.458;7.930;2023-04-25T01:49:03;10.40;99.90
14099;DHT22;7126;48.458;7.930;2023-04-25T01:51:30;10.30;99.90
14099;DHT22;7126;48.458;7.930;2023-04-25T01:53:56;10.30;99.90
14099;DHT22;7126;48.458;7.930;2023-04-25T01:56:22;10.30;99.90
14099;DHT22;7126;48.458;7.930;2023-04-25T01:58:48;10.30;99.90
14099;DHT22;7126;48.458;7.930;2023-04-25T02:01:14;10.20;99.90
14099;DHT22;7126;48.458;7.930;2023-04-25T02:03:40;10.20;99.90
14099;DHT22;7126;48.458;7.930;2023-04-25T02:06:05;10.20;99.90
14099;DHT22;7126;48.458;7.930;2023-04-25T02:08:31;10.10;99.90
14099;DHT22;7126;48.458;7.930;2023-04-25T02:10:57;10.10;99.90
14099;DHT22;7126;48.458;7.930;2023-04-25T02:13:22;10.00;99.90
14099;DHT22;7126;48.458;7.930;2023-04-25T02:15:48;10.00;99.90
14099;DHT22;7126;48.458;7.930;2023-04-25T02:18:14;10.00;99.90
14099;DHT22;7126;48.458;7.930;2023-04-25T02:20:42;10.10;99.90
14099;DHT22;7126;48.458;7.930;2023-04-25T02:23:08;10.00;99.90
14099;DHT22;7126;48.458;7.930;2023-04-25T02:25:33;10.00;99.90
14099;DHT22;7126;48.458;7.930;2023-04-25T02:27:59;10.00;99.90
14099;DHT22;7126;48.458;7.930;2023-04-25T02:30:24;9.90;99.90
14099;DHT22;7126;48.458;7.930;2023-04-25T02:32:50;9.90;99.90
14099;DHT22;7126;48.458;7.930;2023-04-25T02:35:16;9.90;99.90
14099;DHT22;7126;48.458;7.930;2023-04-25T02:37:42;9.80;99.90
14099;DHT22;7126;48.458;7.930;2023-04-25T02:40:08;9.80;99.90
14099;DHT22;7126;48.458;7.930;2023-04-25T02:42:34;9.80;99.90
14099;DHT22;7126;48.458;7.930;2023-04-25T02:45:00;9.90;99.90
14099;DHT22;7126;48.458;7.930;2023-04-25T02:47:26;9.90;99.90
14099;DHT22;7126;48.458;7.930;2023-04-25T02:49:51;9.90;99.90
14099;DHT22;7126;48.458;7.930;2023-04-25T02:52:17;10.00;99.90
14099;DHT22;7126;48.458;7.930;2023-04-25T02:54:43;10.00;99.90
14099;DHT22;7126;48.458;7.930;2023-04-25T02:57:08;10.00;99.90
14099;DHT22;7126;48.458;7.930;2023-04-25T02:59:34;10.10;99.90
14099;DHT22;7126;48.458;7.930;2023-04-25T03:02:00;10.10;99.90
14099;DHT22;7126;48.458;7.930;2023-04-25T03:04:26;10.20;99.90
14099;DHT22;7126;48.458;7.930;2023-04-25T03:06:52;10.20;99.90
14099;DHT22;7126;48.458;7.930;2023-04-25T03:09:18;10.30;99.90
14099;DHT22;7126;48.458;7.930;2023-04-25T03:11:45;10.40;99.90
14099;DHT22;7126;48.458;7.930;2023-04-25T03:14:11;10.50;99.90
14099;DHT22;7126;48.458;7.930;2023-04-25T03:16:37;10.50;99.90
14099;DHT22;7126;48.458;7.930;2023-04-25T03:19:03;10.50;99.90
14099;DHT22;7126;48.458;7.930;2023-04-25T03:21:29;10.50;99.90
14099;DHT22;7126;48.458;7.930;2023-04-25T03:23:57;10.40;99.90
14099;DHT22;7126;48.458;7.930;2023-04-25T03:26:22;10.20;99.90
14099;DHT22;7126;48.458;7.930;2023-04-25T03:28:48;10.00;99.90
14099;DHT22;7126;48.458;7.930;2023-04-25T03:31:13;9.90;99.90
14099;DHT22;7126;48.458;7.930;2023-04-25T03:33:39;9.90;99.90
14099;DHT22;7126;48.458;7.930;2023-04-25T03:36:05;9.80;99.90
14099;DHT22;7126;48.458;7.930;2023-04-25T03:38:30;9.70;99.90
14099;DHT22;7126;48.458;7.930;2023-04-25T03:40:56;9.60;99.90
14099;DHT22;7126;48.458;7.930;2023-04-25T03:43:22;9.60;99.90
14099;DHT22;7126;48.458;7.930;2023-04-25T03:45:47;9.60;99.90
14099;DHT22;7126;48.458;7.930;2023-04-25T03:48:13;9.50;99.90
14099;DHT22;7126;48.458;7.930;2023-04-25T03:50:39;9.50;99.90
14099;DHT22;7126;48.458;7.930;2023-04-25T03:53:04;9.50;99.90
14099;DHT22;7126;48.458;7.930;2023-04-25T03:55:30;9.40;99.90
14099;DHT22;7126;48.458;7.930;2023-04-25T03:57:57;9.50;99.90
14099;DHT22;7126;48.458;7.930;2023-04-25T04:00:23;9.50;99.90
14099;DHT22;7126;48.458;7.930;2023-04-25T04:02:49;9.50;99.90
14099;DHT22;7126;48.458;7.930;2023-04-25T04:05:14;9.60;99.90
14099;DHT22;7126;48.458;7.930;2023-04-25T04:07:40;9.60;99.90
14099;DHT22;7126;48.458;7.930;2023-04-25T04:10:11;9.60;99.90
14099;DHT22;7126;48.458;7.930;2023-04-25T04:12:38;9.50;99.90
14099;DHT22;7126;48.458;7.930;2023-04-25T04:15:05;9.40;99.90
14099;DHT22;7126;48.458;7.930;2023-04-25T04:17:31;9.40;99.90
14099;DHT22;7126;48.458;7.930;2023-04-25T04:19:57;9.40;99.90
14099;DHT22;7126;48.458;7.930;2023-04-25T04:22:23;9.40;99.90
14099;DHT22;7126;48.458;7.930;2023-04-25T04:24:49;9.40;99.90
14099;DHT22;7126;48.458;7.930;2023-04-25T04:27:17;9.30;99.90
14099;DHT22;7126;48.458;7.930;2023-04-25T04:29:42;9.40;99.90
14099;DHT22;7126;48.458;7.930;2023-04-25T04:32:08;9.40;99.90
14099;DHT22;7126;48.458;7.930;2023-04-25T04:34:34;9.40;99.90
14099;DHT22;7126;48.458;7.930;2023-04-25T04:37:00;9.40;99.90
14099;DHT22;7126;48.458;7.930;2023-04-25T04:39:26;9.40;99.90
14099;DHT22;7126;48.458;7.930;2023-04-25T04:41:51;9.40;99.90
14099;DHT22;7126;48.458;7.930;2023-04-25T04:44:17;9.40;99.90
14099;DHT22;7126;48.458;7.930;2023-04-25T04:46:42;9.40;99.90
14099;DHT22;7126;48.458;7.930;2023-04-25T04:49:10;9.40;99.90
14099;DHT22;7126;48.458;7.930;2023-04-25T04:51:36;9.40;99.90
14099;DHT22;7126;48.458;7.930;2023-04-25T04:54:02;9.40;99.90
14099;DHT22;7126;48.458;7.930;2023-04-25T04:56:29;9.40;99.90
14099;DHT22;7126;48.458;7.930;2023-04-25T04:58:56;9.30;99.90
14099;DHT22;7126;48.458;7.930;2023-04-25T05:01:22;9.30;99.90
14099;DHT22;7126;48.458;7.930;2023-04-25T05:03:47;9.30;99.90
14099;DHT22;7126;48.458;7.930;2023-04-25T05:06:13;9.30;99.90
14099;DHT22;7126;48.458;7.930;2023-04-25T05:08:39;9.30;99.90
14099;DHT22;7126;48.458;7.930;2023-04-25T05:11:05;9.30;99.90
14099;DHT22;7126;48.458;7.930;2023-04-25T05:13:30;9.30;99.90
14099;DHT22;7126;48.458;7.930;2023-04-25T05:15:56;9.20;99.90
14099;DHT22;7126;48.458;7.930;2023-04-25T05:18:22;9.20;99.90
14099;DHT22;7126;48.458;7.930;2023-04-25T05:20:47;9.20;99.90
14099;DHT22;7126;48.458;7.930;2023-04-25T05:23:13;9.20;99.90
14099;DHT22;7126;48.458;7.930;2023-04-25T05:25:38;9.20;99.90
14099;DHT22;7126;48.458;7.930;2023-04-25T05:28:04;9.20;99.90
14099;DHT22;7126;48.458;7.930;2023-04-25T05:30:30;9.20;99.90
14099;DHT22;7126;48.458;7.930;2023-04-25T05:32:56;9.20;99.90
14099;DHT22;7126;48.458;7.930;2023-04-25T05:35:21;9.20;99.90
14099;DHT22;7126;48.458;7.930;2023-04-25T05:37:47;9.20;99.90
14099;DHT22;7126;48.458;7.930;2023-04-25T05:40:13;9.20;99.90
14099;DHT22;7126;48.458;7.930;2023-04-25T05:42:38;9.20;99.90
14099;DHT22;7126;48.458;7.930;2023-04-25T05:45:04;9.30;99.90
14099;DHT22;7126;48.458;7.930;2023-04-25T05:47:30;9.30;99.90
14099;DHT22;7126;48.458;7.930;2023-04-25T05:49:55;9.30;99.90
14099;DHT22;7126;48.458;7.930;2023-04-25T05:52:21;9.40;99.90
14099;DHT22;7126;48.458;7.930;2023-04-25T05:54:46;9.40;99.90
14099;DHT22;7126;48.458;7.930;2023-04-25T05:57:20;9.60;99.90
14099;DHT22;7126;48.458;7.930;2023-04-25T05:59:46;9.70;99.90
14099;DHT22;7126;48.458;7.930;2023-04-25T06:02:11;9.70;99.90
14099;DHT22;7126;48.458;7.930;2023-04-25T06:04:37;9.70;99.90
14099;DHT22;7126;48.458;7.930;2023-04-25T06:07:02;9.80;99.90
14099;DHT22;7126;48.458;7.930;2023-04-25T06:09:28;9.80;99.90
14099;DHT22;7126;48.458;7.930;2023-04-25T06:11:53;9.90;99.90
14099;DHT22;7126;48.458;7.930;2023-04-25T06:14:19;9.90;99.90
14099;DHT22;7126;48.458;7.930;2023-04-25T06:16:44;9.90;99.90
14099;DHT22;7126;48.458;7.930;2023-04-25T06:19:10;10.00;99.90
14099;DHT22;7126;48.458;7.930;2023-04-25T06:21:35;9.90;99.90
14099;DHT22;7126;48.458;7.930;2023-04-25T06:24:01;9.90;99.90
14099;DHT22;7126;48.458;7.930;2023-04-25T06:26:27;9.90;99.90
14099;DHT22;7126;48.458;7.930;2023-04-25T06:28:52;9.80;99.90
14099;DHT22;7126;48.458;7.930;2023-04-25T06:31:18;9.80;99.90
14099;DHT22;7126;48.458;7.930;2023-04-25T06:33:43;9.80;99.90
14099;DHT22;7126;48.458;7.930;2023-04-25T06:36:09;9.80;99.90
14099;DHT22;7126;48.458;7.930;2023-04-25T06:38:35;9.70;99.90
14099;DHT22;7126;48.458;7.930;2023-04-25T06:41:00;9.70;99.90
14099;DHT22;7126;48.458;7.930;2023-04-25T06:43:26;9.60;99.90
14099;DHT22;7126;48.458;7.930;2023-04-25T06:45:52;9.70;99.90
14099;DHT22;7126;48.458;7.930;2023-04-25T06:48:17;9.70;99.90
14099;DHT22;7126;48.458;7.930;2023-04-25T06:50:44;9.70;99.90
14099;DHT22;7126;48.458;7.930;2023-04-25T06:53:09;9.60;99.90
14099;DHT22;7126;48.458;7.930;2023-04-25T06:55:36;9.70;99.90
14099;DHT22;7126;48.458;7.930;2023-04-25T06:58:02;9.70;99.90
14099;DHT22;7126;48.458;7.930;2023-04-25T07:00:28;9.70;99.90
14099;DHT22;7126;48.458;7.930;2023-04-25T07:02:54;9.80;99.90
14099;DHT22;7126;48.458;7.930;2023-04-25T07:05:19;9.70;99.90
14099;DHT22;7126;48.458;7.930;2023-04-25T07:07:45;9.80;99.90
14099;DHT22;7126;48.458;7.930;2023-04-25T07:10:11;9.80;99.90
14099;DHT22;7126;48.458;7.930;2023-04-25T07:12:36;9.80;99.90
14099;DHT22;7126;48.458;7.930;2023-04-25T07:15:02;9.80;99.90
14099;DHT22;7126;48.458;7.930;2023-04-25T07:17:31;9.80;99.90
14099;DHT22;7126;48.458;7.930;2023-04-25T07:19:57;9.70;99.90
14099;DHT22;7126;48.458;7.930;2023-04-25T07:22:23;9.70;99.90
14099;DHT22;7126;48.458;7.930;2023-04-25T07:24:49;9.80;99.90
14099;DHT22;7126;48.458;7.930;2023-04-25T07:27:15;9.80;99.90
14099;DHT22;7126;48.458;7.930;2023-04-25T07:29:41;9.70;99.90
14099;DHT22;7126;48.458;7.930;2023-04-25T07:32:07;9.70;99.90
14099;DHT22;7126;48.458;7.930;2023-04-25T07:34:33;9.60;99.90
14099;DHT22;7126;48.458;7.930;2023-04-25T07:37:02;9.60;99.90
14099;DHT22;7126;48.458;7.930;2023-04-25T07:39:28;9.60;99.90
14099;DHT22;7126;48.458;7.930;2023-04-25T07:41:53;9.60;99.90
14099;DHT22;7126;48.458;7.930;2023-04-25T07:44:19;9.60;99.90
14099;DHT22;7126;48.458;7.930;2023-04-25T07:46:44;9.60;99.90
14099;DHT22;7126;48.458;7.930;2023-04-25T07:49:10;9.60;99.90
14099;DHT22;7126;48.458;7.930;2023-04-25T07:51:35;9.60;99.90
14099;DHT22;7126;48.458;7.930;2023-04-25T07:54:01;9.50;99.90
14099;DHT22;7126;48.458;7.930;2023-04-25T07:56:27;9.50;99.90
14099;DHT22;7126;48.458;7.930;2023-04-25T07:58:52;9.50;99.90
14099;DHT22;7126;48.458;7.930;2023-04-25T08:01:18;9.50;99.90
14099;DHT22;7126;48.458;7.930;2023-04-25T08:03:46;9.50;99.90
14099;DHT22;7126;48.458;7.930;2023-04-25T08:06:11;9.50;99.90
14099;DHT22;7126;48.458;7.930;2023-04-25T08:08:37;9.50;99.90
14099;DHT22;7126;48.458;7.930;2023-04-25T08:11:02;9.60;99.90
14099;DHT22;7126;48.458;7.930;2023-04-25T08:13:28;9.60;99.90
14099;DHT22;7126;48.458;7.930;2023-04-25T08:15:54;9.60;99.90
14099;DHT22;7126;48.458;7.930;2023-04-25T08:18:20;9.70;99.90
14099;DHT22;7126;48.458;7.930;2023-04-25T08:20:45;9.70;99.90
14099;DHT22;7126;48.458;7.930;2023-04-25T08:23:11;9.70;99.90
14099;DHT22;7126;48.458;7.930;2023-04-25T08:25:36;9.70;99.90
14099;DHT22;7126;48.458;7.930;2023-04-25T08:28:02;9.70;99.90
14099;DHT22;7126;48.458;7.930;2023-04-25T08:30:28;9.60;99.90
14099;DHT22;7126;48.458;7.930;2023-04-25T08:32:54;9.60;99.90
14099;DHT22;7126;48.458;7.930;2023-04-25T08:35:20;9.60;99.90
14099;DHT22;7126;48.458;7.930;2023-04-25T08:37:46;9.60;99.90
14099;DHT22;7126;48.458;7.930;2023-04-25T08:40:13;9.60;99.90
14099;DHT22;7126;48.458;7.930;2023-04-25T08:42:41;9.60;99.90
14099;DHT22;7126;48.458;7.930;2023-04-25T08:45:08;9.60;99.90
14099;DHT22;7126;48.458;7.930;2023-04-25T08:47:35;9.70;99.90
14099;DHT22;7126;48.458;7.930;2023-04-25T08:50:04;9.70;99.90
14099;DHT22;7126;48.458;7.930;2023-04-25T08:52:36;9.70;99.90
14099;DHT22;7126;48.458;7.930;2023-04-25T08:55:03;9.60;99.90
14099;DHT22;7126;48.458;7.930;2023-04-25T08:57:31;9.60;99.90
14099;DHT22;7126;48.458;7.930;2023-04-25T08:59:57;9.60;99.90
14099;DHT22;7126;48.458;7.930;2023-04-25T09:02:24;9.50;99.90
14099;DHT22;7126;48.458;7.930;2023-04-25T09:04:50;9.60;99.90
14099;DHT22;7126;48.458;7.930;2023-04-25T09:07:16;9.60;99.90
14099;DHT22;7126;48.458;7.930;2023-04-25T09:09:46;9.60;99.90
14099;DHT22;7126;48.458;7.930;2023-04-25T09:12:11;9.60;99.90
14099;DHT22;7126;48.458;7.930;2023-04-25T09:14:37;9.50;99.90
14099;DHT22;7126;48.458;7.930;2023-04-25T09:17:04;9.50;99.90
14099;DHT22;7126;48.458;7.930;2023-04-25T09:19:32;9.40;99.90
14099;DHT22;7126;48.458;7.930;2023-04-25T09:22:00;9.30;99.90
14099;DHT22;7126;48.458;7.930;2023-04-25T09:24:38;9.30;99.90
14099;DHT22;7126;48.458;7.930;2023-04-25T09:27:12;9.20;99.90
14099;DHT22;7126;48.458;7.930;2023-04-25T09:29:39;9.30;99.90
14099;DHT22;7126;48.458;7.930;2023-04-25T09:32:22;9.20;99.90
14099;DHT22;7126;48.458;7.930;2023-04-25T09:34:53;9.20;99.90
14099;DHT22;7126;48.458;7.930;2023-04-25T09:37:29;9.20;99.90
14099;DHT22;7126;48.458;7.930;2023-04-25T09:39:57;9.20;99.90
14099;DHT22;7126;48.458;7.930;2023-04-25T09:42:29;9.10;99.90
14099;DHT22;7126;48.458;7.930;2023-04-25T09:44:58;9.00;99.90
14099;DHT22;7126;48.458;7.930;2023-04-25T09:47:25;9.00;99.90
14099;DHT22;7126;48.458;7.930;2023-04-25T09:49:52;8.90;99.90
14099;DHT22;7126;48.458;7.930;2023-04-25T09:52:20;8.90;99.90
14099;DHT22;7126;48.458;7.930;2023-04-25T09:54:46;8.80;99.90
14099;DHT22;7126;48.458;7.930;2023-04-25T09:57:16;8.90;99.90
14099;DHT22;7126;48.458;7.930;2023-04-25T10:00:02;9.00;99.90
14099;DHT22;7126;48.458;7.930;2023-04-25T10:02:34;9.10;99.90
14099;DHT22;7126;48.458;7.930;2023-04-25T10:05:02;9.10;99.90
14099;DHT22;7126;48.458;7.930;2023-04-25T10:07:31;9.10;99.90
14099;DHT22;7126;48.458;7.930;2023-04-25T10:09:59;8.90;99.90
14099;DHT22;7126;48.458;7.930;2023-04-25T10:12:27;8.90;99.90
14099;DHT22;7126;48.458;7.930;2023-04-25T10:14:53;9.00;99.90
14099;DHT22;7126;48.458;7.930;2023-04-25T10:17:20;9.00;99.90
14099;DHT22;7126;48.458;7.930;2023-04-25T10:19:47;9.00;99.90
14099;DHT22;7126;48.458;7.930;2023-04-25T10:22:26;9.00;99.90
14099;DHT22;7126;48.458;7.930;2023-04-25T10:24:55;9.20;99.90
14099;DHT22;7126;48.458;7.930;2023-04-25T10:27:21;9.20;99.90
14099;DHT22;7126;48.458;7.930;2023-04-25T10:30:16;9.30;99.90
14099;DHT22;7126;48.458;7.930;2023-04-25T10:32:42;9.60;99.90
14099;DHT22;7126;48.458;7.930;2023-04-25T10:35:14;9.80;99.90
14099;DHT22;7126;48.458;7.930;2023-04-25T10:40:31;9.80;99.90
14099;DHT22;7126;48.458;7.930;2023-04-25T10:48:55;9.90;99.90
14099;DHT22;7126;48.458;7.930;2023-04-25T10:54:03;10.20;99.90
14099;DHT22;7126;48.458;7.930;2023-04-25T10:59:17;10.40;99.90
14099;DHT22;7126;48.458;7.930;2023-04-25T11:01:48;10.50;99.90
14099;DHT22;7126;48.458;7.930;2023-04-25T11:04:24;10.70;99.90
14099;DHT22;7126;48.458;7.930;2023-04-25T11:09:41;11.60;99.90
14099;DHT22;7126;48.458;7.930;2023-04-25T11:12:09;11.80;99.90
14099;DHT22;7126;48.458;7.930;2023-04-25T11:14:36;11.90;99.90
14099;DHT22;7126;48.458;7.930;2023-04-25T11:17:02;11.90;99.90
14099;DHT22;7126;48.458;7.930;2023-04-25T11:19:29;11.60;99.90
14099;DHT22;7126;48.458;7.930;2023-04-25T11:21:56;11.30;99.90
14099;DHT22;7126;48.458;7.930;2023-04-25T11:26:54;11.20;99.90
14099;DHT22;7126;48.458;7.930;2023-04-25T11:29:26;11.20;99.90
14099;DHT22;7126;48.458;7.930;2023-04-25T11:31:52;11.10;99.90
14099;DHT22;7126;48.458;7.930;2023-04-25T11:34:19;11.10;99.90
14099;DHT22;7126;48.458;7.930;2023-04-25T11:36:45;11.20;99.90
14099;DHT22;7126;48.458;7.930;2023-04-25T11:39:12;11.30;99.90
14099;DHT22;7126;48.458;7.930;2023-04-25T11:41:38;11.40;99.90
14099;DHT22;7126;48.458;7.930;2023-04-25T11:44:04;11.90;99.90
14099;DHT22;7126;48.458;7.930;2023-04-25T11:46:30;12.30;99.90
14099;DHT22;7126;48.458;7.930;2023-04-25T11:48:56;12.60;99.90
14099;DHT22;7126;48.458;7.930;2023-04-25T11:51:22;12.60;99.90
14099;DHT22;7126;48.458;7.930;2023-04-25T11:53:48;12.50;99.90
14099;DHT22;7126;48.458;7.930;2023-04-25T11:56:13;12.30;99.90
14099;DHT22;7126;48.458;7.930;2023-04-25T11:58:58;12.00;99.90
14099;DHT22;7126;48.458;7.930;2023-04-25T12:01:33;11.90;99.90
14099;DHT22;7126;48.458;7.930;2023-04-25T12:04:16;12.00;99.90
14099;DHT22;7126;48.458;7.930;2023-04-25T12:06:43;12.30;99.90
14099;DHT22;7126;48.458;7.930;2023-04-25T12:09:12;12.40;99.90
14099;DHT22;7126;48.458;7.930;2023-04-25T12:12:02;12.50;99.90
14099;DHT22;7126;48.458;7.930;2023-04-25T12:14:30;12.50;99.90
14099;DHT22;7126;48.458;7.930;2023-04-25T12:16:58;12.60;99.90
14099;DHT22;7126;48.458;7.930;2023-04-25T12:19:24;12.60;99.90
14099;DHT22;7126;48.458;7.930;2023-04-25T12:21:51;12.60;99.90
14099;DHT22;7126;48.458;7.930;2023-04-25T12:24:17;12.90;99.90
14099;DHT22;7126;48.458;7.930;2023-04-25T12:27:00;13.20;99.90
14099;DHT22;7126;48.458;7.930;2023-04-25T12:29:28;13.60;99.90
14099;DHT22;7126;48.458;7.930;2023-04-25T12:31:54;14.10;99.90
14099;DHT22;7126;48.458;7.930;2023-04-25T12:34:21;14.50;99.90
14099;DHT22;7126;48.458;7.930;2023-04-25T12:36:47;14.50;99.90
14099;DHT22;7126;48.458;7.930;2023-04-25T12:41:41;14.20;99.90
14099;DHT22;7126;48.458;7.930;2023-04-25T12:44:07;13.90;99.90
14099;DHT22;7126;48.458;7.930;2023-04-25T12:46:32;13.70;99.90
14099;DHT22;7126;48.458;7.930;2023-04-25T12:48:58;13.50;99.90
14099;DHT22;7126;48.458;7.930;2023-04-25T12:51:23;13.30;99.90
14099;DHT22;7126;48.458;7.930;2023-04-25T12:53:51;13.10;99.90
14099;DHT22;7126;48.458;7.930;2023-04-25T12:56:16;12.90;99.90
14099;DHT22;7126;48.458;7.930;2023-04-25T12:58:42;12.80;99.90
14099;DHT22;7126;48.458;7.930;2023-04-25T13:01:09;12.80;99.90
14099;DHT22;7126;48.458;7.930;2023-04-25T13:03:35;12.60;99.90
14099;DHT22;7126;48.458;7.930;2023-04-25T13:06:00;12.40;99.90
14099;DHT22;7126;48.458;7.930;2023-04-25T13:08:26;12.20;99.90
14099;DHT22;7126;48.458;7.930;2023-04-25T13:10:52;12.00;99.90
14099;DHT22;7126;48.458;7.930;2023-04-25T13:13:17;11.80;99.90
14099;DHT22;7126;48.458;7.930;2023-04-25T13:15:43;11.60;99.90
14099;DHT22;7126;48.458;7.930;2023-04-25T13:18:08;11.40;99.90
14099;DHT22;7126;48.458;7.930;2023-04-25T13:20:34;11.40;99.90
14099;DHT22;7126;48.458;7.930;2023-04-25T13:23:00;11.20;99.90
14099;DHT22;7126;48.458;7.930;2023-04-25T13:25:25;11.20;99.90
14099;DHT22;7126;48.458;7.930;2023-04-25T13:27:51;11.20;99.90
14099;DHT22;7126;48.458;7.930;2023-04-25T13:30:16;11.20;99.90
14099;DHT22;7126;48.458;7.930;2023-04-25T13:32:42;11.40;99.90
14099;DHT22;7126;48.458;7.930;2023-04-25T13:35:12;11.80;99.90
14099;DHT22;7126;48.458;7.930;2023-04-25T13:37:39;12.00;99.90
14099;DHT22;7126;48.458;7.930;2023-04-25T13:40:07;12.10;99.90
14099;DHT22;7126;48.458;7.930;2023-04-25T13:42:34;12.10;99.90
14099;DHT22;7126;48.458;7.930;2023-04-25T13:45:00;12.10;99.90
14099;DHT22;7126;48.458;7.930;2023-04-25T13:47:26;12.00;99.90
14099;DHT22;7126;48.458;7.930;2023-04-25T13:49:52;11.70;99.90
14099;DHT22;7126;48.458;7.930;2023-04-25T13:52:18;11.50;99.90
14099;DHT22;7126;48.458;7.930;2023-04-25T13:54:44;11.60;99.90
14099;DHT22;7126;48.458;7.930;2023-04-25T13:57:10;11.70;99.90
14099;DHT22;7126;48.458;7.930;2023-04-25T13:59:37;11.90;99.90
14099;DHT22;7126;48.458;7.930;2023-04-25T14:02:02;12.00;99.90
14099;DHT22;7126;48.458;7.930;2023-04-25T14:04:28;12.40;99.90
14099;DHT22;7126;48.458;7.930;2023-04-25T14:06:53;12.80;99.90
14099;DHT22;7126;48.458;7.930;2023-04-25T14:09:19;13.20;99.90
14099;DHT22;7126;48.458;7.930;2023-04-25T14:11:47;13.50;99.90
14099;DHT22;7126;48.458;7.930;2023-04-25T14:14:13;13.90;99.90
14099;DHT22;7126;48.458;7.930;2023-04-25T14:16:41;14.20;99.90
14099;DHT22;7126;48.458;7.930;2023-04-25T14:19:07;14.30;99.90
14099;DHT22;7126;48.458;7.930;2023-04-25T14:21:32;14.60;99.90
14099;DHT22;7126;48.458;7.930;2023-04-25T14:23:58;14.80;99.90
14099;DHT22;7126;48.458;7.930;2023-04-25T14:26:23;15.10;99.90
14099;DHT22;7126;48.458;7.930;2023-04-25T14:28:51;15.30;99.90
14099;DHT22;7126;48.458;7.930;2023-04-25T14:31:16;14.80;99.90
14099;DHT22;7126;48.458;7.930;2023-04-25T14:33:42;14.50;99.90
14099;DHT22;7126;48.458;7.930;2023-04-25T14:36:08;14.10;99.90
14099;DHT22;7126;48.458;7.930;2023-04-25T14:38:34;14.00;99.90
14099;DHT22;7126;48.458;7.930;2023-04-25T14:41:00;14.00;99.90
14099;DHT22;7126;48.458;7.930;2023-04-25T14:43:25;14.00;99.90
14099;DHT22;7126;48.458;7.930;2023-04-25T14:45:51;14.10;99.90
14099;DHT22;7126;48.458;7.930;2023-04-25T14:48:18;14.40;99.90
14099;DHT22;7126;48.458;7.930;2023-04-25T14:50:45;14.60;99.90
14099;DHT22;7126;48.458;7.930;2023-04-25T14:53:10;14.60;99.90
14099;DHT22;7126;48.458;7.930;2023-04-25T14:55:36;14.50;99.90
14099;DHT22;7126;48.458;7.930;2023-04-25T14:58:01;14.40;99.90
14099;DHT22;7126;48.458;7.930;2023-04-25T15:00:27;14.10;99.90
14099;DHT22;7126;48.458;7.930;2023-04-25T15:02:53;14.10;99.90
14099;DHT22;7126;48.458;7.930;2023-04-25T15:05:18;14.20;99.90
14099;DHT22;7126;48.458;7.930;2023-04-25T15:07:44;14.30;99.90
14099;DHT22;7126;48.458;7.930;2023-04-25T15:10:10;14.30;99.90
14099;DHT22;7126;48.458;7.930;2023-04-25T15:12:41;14.10;99.90
14099;DHT22;7126;48.458;7.930;2023-04-25T15:15:08;13.70;99.90
14099;DHT22;7126;48.458;7.930;2023-04-25T15:17:41;13.30;99.90
14099;DHT22;7126;48.458;7.930;2023-04-25T15:20:08;13.40;99.90
14099;DHT22;7126;48.458;7.930;2023-04-25T15:22:39;13.60;99.90
14099;DHT22;7126;48.458;7.930;2023-04-25T15:25:06;13.50;99.90
14099;DHT22;7126;48.458;7.930;2023-04-25T15:27:33;13.20;99.90
14099;DHT22;7126;48.458;7.930;2023-04-25T15:29:59;13.10;99.90
14099;DHT22;7126;48.458;7.930;2023-04-25T15:32:25;13.00;99.90
14099;DHT22;7126;48.458;7.930;2023-04-25T15:34:51;13.00;99.90
14099;DHT22;7126;48.458;7.930;2023-04-25T15:37:16;13.20;99.90
14099;DHT22;7126;48.458;7.930;2023-04-25T15:39:44;13.40;99.90
14099;DHT22;7126;48.458;7.930;2023-04-25T15:42:09;13.40;99.90
14099;DHT22;7126;48.458;7.930;2023-04-25T15:44:35;13.60;99.90
14099;DHT22;7126;48.458;7.930;2023-04-25T15:47:00;13.90;99.90
14099;DHT22;7126;48.458;7.930;2023-04-25T15:49:26;14.10;99.90
14099;DHT22;7126;48.458;7.930;2023-04-25T15:51:52;14.20;99.90
14099;DHT22;7126;48.458;7.930;2023-04-25T15:54:18;14.10;99.90
14099;DHT22;7126;48.458;7.930;2023-04-25T15:56:44;14.10;99.90
14099;DHT22;7126;48.458;7.930;2023-04-25T15:59:10;14.00;99.90
14099;DHT22;7126;48.458;7.930;2023-04-25T16:01:35;13.80;99.90
14099;DHT22;7126;48.458;7.930;2023-04-25T16:04:02;13.60;99.90
14099;DHT22;7126;48.458;7.930;2023-04-25T16:06:27;13.40;99.90
14099;DHT22;7126;48.458;7.930;2023-04-25T16:08:53;13.10;99.90
14099;DHT22;7126;48.458;7.930;2023-04-25T16:11:19;12.90;99.90